createdAt,value
2023-01-12T00:01:42.638Z,70.40
2023-01-12T00:04:12.933Z,70.30
2023-01-12T00:06:39.852Z,71.90
2023-01-12T00:09:07.545Z,70.30
2023-01-12T00:11:35.183Z,70.90
2023-01-12T00:14:02.728Z,71.10
2023-01-12T00:16:35.280Z,70.90
2023-01-12T00:19:11.363Z,69.80
2023-01-12T00:21:56.305Z,70.30
2023-01-12T00:24:25.494Z,71.90
2023-01-12T00:26:53.313Z,71.40
2023-01-12T00:29:20.562Z,71.20
2023-01-12T00:31:47.735Z,70.60
2023-01-12T00:34:15.325Z,70.80
2023-01-12T00:36:42.155Z,71.10
2023-01-12T00:39:09.007Z,70.50
2023-01-12T00:41:56.505Z,70.50
2023-01-12T00:44:42.592Z,72.00
2023-01-12T00:47:10.674Z,71.40
2023-01-12T00:49:38.742Z,72.00
2023-01-12T00:52:07.581Z,72.00
2023-01-12T00:54:34.836Z,72.30
2023-01-12T00:57:02.538Z,72.00
2023-01-12T00:59:29.705Z,72.10
2023-01-12T01:01:57.062Z,71.90
2023-01-12T01:04:24.114Z,71.20
2023-01-12T01:06:50.952Z,72.10
2023-01-12T01:09:19.094Z,72.10
2023-01-12T01:11:45.877Z,72.30
2023-01-12T01:14:12.794Z,72.10
2023-01-12T01:16:39.592Z,72.40
2023-01-12T01:19:06.455Z,72.40
2023-01-12T01:21:34.305Z,72.60
2023-01-12T01:24:01.111Z,73.60
2023-01-12T01:26:30.747Z,73.00
2023-01-12T01:28:58.011Z,73.00
2023-01-12T01:31:26.290Z,74.60
2023-01-12T01:33:53.607Z,74.00
2023-01-12T01:36:21.061Z,73.50
2023-01-12T01:38:49.813Z,73.50
2023-01-12T01:41:23.195Z,74.50
2023-01-12T01:43:54.400Z,75.90
2023-01-12T01:46:38.601Z,73.60
2023-01-12T01:49:29.352Z,75.30
2023-01-12T01:52:07.357Z,75.20
2023-01-12T01:54:39.852Z,75.30
2023-01-12T01:57:08.942Z,75.40
2023-01-12T01:59:37.553Z,75.10
2023-01-12T02:02:04.787Z,75.10
2023-01-12T02:04:31.818Z,74.40
2023-01-12T02:07:00.836Z,74.20
2023-01-12T02:09:28.368Z,75.00
2023-01-12T02:12:14.126Z,74.70
2023-01-12T02:15:03.725Z,74.60
2023-01-12T02:18:10.723Z,75.50
2023-01-12T02:21:06.206Z,76.30
2023-01-12T02:24:24.591Z,76.40
2023-01-12T02:27:34.098Z,76.60
2023-01-12T02:30:29.187Z,76.60
2023-01-12T02:33:52.788Z,76.50
2023-01-12T02:36:25.386Z,76.80
2023-01-12T02:39:01.878Z,74.90
2023-01-12T02:42:02.650Z,76.70
2023-01-12T02:44:48.322Z,76.10
2023-01-12T02:47:25.306Z,77.00
2023-01-12T02:49:56.083Z,76.70
2023-01-12T02:52:26.439Z,76.00
2023-01-12T02:54:54.767Z,76.40
2023-01-12T02:57:24.578Z,75.70
2023-01-12T02:59:54.041Z,76.40
2023-01-12T03:02:24.471Z,76.20
2023-01-12T03:04:51.258Z,76.30
2023-01-12T03:07:23.551Z,75.00
2023-01-12T03:09:54.953Z,76.20
2023-01-12T03:12:29.274Z,76.30
2023-01-12T03:15:00.060Z,77.20
2023-01-12T03:17:44.940Z,76.20
2023-01-12T03:20:15.836Z,76.60
2023-01-12T03:22:43.910Z,76.60
2023-01-12T03:25:14.220Z,75.50
2023-01-12T03:27:45.702Z,76.60
2023-01-12T03:30:18.026Z,76.40
2023-01-12T03:32:45.209Z,76.60
2023-01-12T03:35:12.821Z,75.30
2023-01-12T03:37:59.245Z,75.90
2023-01-12T03:40:30.699Z,77.50
2023-01-12T03:43:06.527Z,76.60
2023-01-12T03:45:41.111Z,77.20
2023-01-12T03:48:15.385Z,77.00
2023-01-12T03:50:51.613Z,76.90
2023-01-12T03:53:21.339Z,76.50
2023-01-12T03:55:52.861Z,76.70
2023-01-12T03:58:19.866Z,76.50
2023-01-12T04:00:46.634Z,75.40
2023-01-12T04:03:17.653Z,75.50
2023-01-12T04:05:46.021Z,77.30
2023-01-12T04:08:16.866Z,76.70
2023-01-12T04:10:43.634Z,77.30
2023-01-12T04:13:10.359Z,75.70
2023-01-12T04:15:42.195Z,75.70
2023-01-12T04:18:12.835Z,76.00
2023-01-12T04:20:39.882Z,77.40
2023-01-12T04:23:07.437Z,75.90
2023-01-12T04:25:34.711Z,75.90
2023-01-12T04:28:02.705Z,75.90
2023-01-12T04:30:31.353Z,75.70
2023-01-12T04:32:59.370Z,76.50
2023-01-12T04:35:27.648Z,76.30
2023-01-12T04:37:54.826Z,75.90
2023-01-12T04:40:21.581Z,75.60
2023-01-12T04:43:02.344Z,75.50
2023-01-12T04:45:30.715Z,77.30
2023-01-12T04:48:04.826Z,76.00
2023-01-12T04:50:32.039Z,77.50
2023-01-12T04:53:01.444Z,76.20
2023-01-12T04:55:28.292Z,76.40
2023-01-12T04:57:57.066Z,76.00
2023-01-12T05:00:23.991Z,77.20
2023-01-12T05:02:55.334Z,76.10
2023-01-12T05:05:22.018Z,75.70
2023-01-12T05:08:07.373Z,76.10
2023-01-12T05:10:34.096Z,75.60
2023-01-12T05:13:00.783Z,76.20
2023-01-12T05:15:27.557Z,76.20
2023-01-12T05:17:54.363Z,76.20
2023-01-12T05:20:21.636Z,76.50
2023-01-12T05:22:48.775Z,77.00
2023-01-12T05:25:15.832Z,76.40
2023-01-12T05:27:42.540Z,76.40
2023-01-12T05:30:09.905Z,76.30
2023-01-12T05:32:41.360Z,76.60
2023-01-12T05:35:08.851Z,78.20
2023-01-12T05:37:35.739Z,76.90
2023-01-12T05:40:02.500Z,76.50
2023-01-12T05:42:47.959Z,76.30
2023-01-12T05:45:14.763Z,76.00
2023-01-12T05:47:41.493Z,76.50
2023-01-12T05:50:08.815Z,76.50
2023-01-12T05:52:35.554Z,76.80
2023-01-12T05:55:02.455Z,76.40
2023-01-12T05:57:30.418Z,76.40
2023-01-12T05:59:57.342Z,77.30
2023-01-12T06:02:24.124Z,76.80
2023-01-12T06:04:50.942Z,76.20
2023-01-12T06:07:17.679Z,76.90
2023-01-12T06:09:44.512Z,76.60
2023-01-12T06:12:30.584Z,76.80
2023-01-12T06:14:57.431Z,77.00
2023-01-12T06:17:24.184Z,76.80
2023-01-12T06:19:50.923Z,77.00
2023-01-12T06:22:19.282Z,77.10
2023-01-12T06:24:49.063Z,77.10
2023-01-12T06:27:18.765Z,77.20
2023-01-12T06:29:45.513Z,79.00
2023-01-12T06:32:12.275Z,77.30
2023-01-12T06:34:38.970Z,77.10
2023-01-12T06:37:08.188Z,77.20
2023-01-12T06:39:34.947Z,77.90
2023-01-12T06:42:20.074Z,77.20
2023-01-12T06:44:48.817Z,76.90
2023-01-12T06:47:15.933Z,77.40
2023-01-12T06:49:42.772Z,77.70
2023-01-12T06:52:09.542Z,77.30
2023-01-12T06:54:36.385Z,77.40
2023-01-12T06:57:03.146Z,77.80
2023-01-12T06:59:29.831Z,77.70
2023-01-12T07:01:56.564Z,77.80
2023-01-12T07:04:23.320Z,77.50
2023-01-12T07:06:54.655Z,77.50
2023-01-12T07:09:21.642Z,79.40
2023-01-12T07:11:48.335Z,78.10
2023-01-12T07:14:15.071Z,78.00
2023-01-12T07:16:41.868Z,78.10
2023-01-12T07:19:08.587Z,77.80
2023-01-12T07:21:35.413Z,77.90
2023-01-12T07:24:02.323Z,78.00
2023-01-12T07:26:29.174Z,78.00
2023-01-12T07:28:56.290Z,77.90
2023-01-12T07:31:23.067Z,78.30
2023-01-12T07:33:53.856Z,78.10
2023-01-12T07:36:21.407Z,80.00
2023-01-12T07:38:48.283Z,78.40
2023-01-12T07:41:33.851Z,78.20
2023-01-12T07:44:08.632Z,77.60
2023-01-12T07:46:35.397Z,78.10
2023-01-12T07:49:02.257Z,78.10
2023-01-12T07:51:30.053Z,78.10
2023-01-12T07:53:56.715Z,78.00
2023-01-12T07:56:23.432Z,77.90
2023-01-12T07:58:50.440Z,77.80
2023-01-12T08:01:17.352Z,78.00
2023-01-12T08:03:44.202Z,77.70
2023-01-12T08:06:11.288Z,78.20
2023-01-12T08:08:37.977Z,77.70
2023-01-12T08:11:06.712Z,78.10
2023-01-12T08:13:34.689Z,78.70
2023-01-12T08:16:08.200Z,78.40
2023-01-12T08:18:43.911Z,79.40
2023-01-12T08:21:15.031Z,79.30
2023-01-12T08:23:51.722Z,79.00
2023-01-12T08:26:25.673Z,79.80
2023-01-12T08:29:32.078Z,79.40
2023-01-12T08:32:05.013Z,79.40
2023-01-12T08:34:36.263Z,78.50
2023-01-12T08:37:07.929Z,77.60
2023-01-12T08:39:35.461Z,79.20
2023-01-12T08:42:02.718Z,78.50
2023-01-12T08:44:33.999Z,77.80
2023-01-12T08:47:01.184Z,77.70
2023-01-12T08:49:30.788Z,78.10
2023-01-12T08:51:58.136Z,78.70
2023-01-12T08:54:25.373Z,78.20
2023-01-12T08:56:53.739Z,77.60
2023-01-12T08:59:20.623Z,77.60
2023-01-12T09:01:47.832Z,77.70
2023-01-12T09:04:14.644Z,78.10
2023-01-12T09:06:43.467Z,77.70
2023-01-12T09:09:12.568Z,78.70
2023-01-12T09:11:41.317Z,78.90
2023-01-12T09:14:08.669Z,78.50
2023-01-12T09:16:36.143Z,77.90
2023-01-12T09:19:04.132Z,78.10
2023-01-12T09:21:32.201Z,78.40
2023-01-12T09:23:59.352Z,78.30
2023-01-12T09:26:31.729Z,78.00
2023-01-12T09:28:59.670Z,78.70
2023-01-12T09:31:28.280Z,78.30
2023-01-12T09:33:56.062Z,78.80
2023-01-12T09:36:27.471Z,77.70
2023-01-12T09:38:54.830Z,78.30
2023-01-12T09:41:46.498Z,78.30
2023-01-12T09:44:40.698Z,79.60
2023-01-12T09:47:18.872Z,79.20
2023-01-12T09:50:01.313Z,79.80
2023-01-12T09:52:46.021Z,78.70
2023-01-12T09:55:24.863Z,78.90
2023-01-12T09:58:16.239Z,79.90
2023-01-12T10:00:43.047Z,80.40
2023-01-12T10:03:09.844Z,77.90
2023-01-12T10:05:46.011Z,77.90
2023-01-12T10:08:31.782Z,79.70
2023-01-12T10:11:10.979Z,80.20
2023-01-12T10:13:50.979Z,77.70
2023-01-12T10:16:44.562Z,79.30
2023-01-12T10:19:21.637Z,80.30
2023-01-12T10:21:50.194Z,79.30
2023-01-12T10:24:21.271Z,78.60
2023-01-12T10:26:57.144Z,77.80
2023-01-12T10:29:24.127Z,79.30
2023-01-12T10:31:51.688Z,78.30
2023-01-12T10:34:18.844Z,77.50
2023-01-12T10:36:49.637Z,77.40
2023-01-12T10:39:27.893Z,78.50
2023-01-12T10:42:38.689Z,79.70
2023-01-12T10:45:16.517Z,79.00
2023-01-12T10:47:45.657Z,79.50
2023-01-12T10:50:24.728Z,78.60
2023-01-12T10:53:15.915Z,80.20
2023-01-12T10:55:43.931Z,80.00
2023-01-12T10:58:30.481Z,78.20
2023-01-12T11:00:58.533Z,79.60
2023-01-12T11:03:42.010Z,78.50
2023-01-12T11:06:30.481Z,79.80
2023-01-12T11:08:57.579Z,79.50
2023-01-12T11:11:31.082Z,78.10
2023-01-12T11:14:03.516Z,79.00
2023-01-12T11:16:34.402Z,79.60
2023-01-12T11:19:07.258Z,79.10
2023-01-12T11:21:38.031Z,77.30
2023-01-12T11:24:37.050Z,79.10
2023-01-12T11:27:34.438Z,79.50
2023-01-12T11:30:15.748Z,79.50
2023-01-12T11:32:49.525Z,79.60
2023-01-12T11:35:31.625Z,79.40
2023-01-12T11:38:04.030Z,79.80
2023-01-12T11:40:37.502Z,79.40
2023-01-12T11:43:49.097Z,80.00
2023-01-12T11:46:36.591Z,80.00
2023-01-12T11:49:29.609Z,79.80
2023-01-12T11:51:58.872Z,80.00
2023-01-12T11:54:28.178Z,79.30
2023-01-12T11:57:41.921Z,79.50
2023-01-12T12:00:28.963Z,80.10
2023-01-12T12:03:25.564Z,79.40
2023-01-12T12:05:58.519Z,79.60
2023-01-12T12:08:34.263Z,79.40
2023-01-12T12:11:05.180Z,79.30
2023-01-12T12:13:54.907Z,79.50
2023-01-12T12:16:50.397Z,79.30
2023-01-12T12:19:39.600Z,79.30
2023-01-12T12:22:36.081Z,79.70
2023-01-12T12:25:17.454Z,80.00
2023-01-12T12:28:15.303Z,79.20
2023-01-12T12:30:54.255Z,79.80
2023-01-12T12:34:01.147Z,80.40
2023-01-12T12:36:50.177Z,79.70
2023-01-12T12:39:42.127Z,80.10
2023-01-12T12:42:30.459Z,79.90
2023-01-12T12:45:19.078Z,77.50
2023-01-12T12:48:25.079Z,79.70
2023-01-12T12:51:03.324Z,79.60
2023-01-12T12:53:50.294Z,79.20
2023-01-12T12:56:19.483Z,79.60
2023-01-12T12:58:50.172Z,79.00
2023-01-12T13:01:20.179Z,78.70
2023-01-12T13:03:49.062Z,80.60
2023-01-12T13:06:35.438Z,79.40
2023-01-12T13:09:11.355Z,79.50
2023-01-12T13:11:54.693Z,79.90
2023-01-12T13:14:26.141Z,79.30
2023-01-12T13:17:18.753Z,77.50
2023-01-12T13:20:02.225Z,79.60
2023-01-12T13:22:49.514Z,79.40
2023-01-12T13:25:16.212Z,79.60
2023-01-12T13:28:00.247Z,77.70
2023-01-12T13:30:30.092Z,79.30
2023-01-12T13:33:15.769Z,77.00
2023-01-12T13:35:46.233Z,79.80
2023-01-12T13:38:34.068Z,77.20
2023-01-12T13:41:41.114Z,79.20
2023-01-12T13:44:13.758Z,78.80
2023-01-12T13:46:45.712Z,79.50
2023-01-12T13:49:34.332Z,79.30
2023-01-12T13:52:19.537Z,79.30
2023-01-12T13:54:50.452Z,79.80
2023-01-12T13:57:29.201Z,79.40
2023-01-12T14:00:19.665Z,79.70
2023-01-12T14:02:46.543Z,79.50
2023-01-12T14:05:46.457Z,77.40
2023-01-12T14:08:55.834Z,79.40
2023-01-12T14:11:38.834Z,79.30
2023-01-12T14:15:05.246Z,78.90
2023-01-12T14:17:49.739Z,79.20
2023-01-12T14:20:19.128Z,78.80
2023-01-12T14:22:46.070Z,78.40
2023-01-12T14:25:25.298Z,77.50
2023-01-12T14:27:54.238Z,79.60
2023-01-12T14:30:26.371Z,78.60
2023-01-12T14:32:53.841Z,77.80
2023-01-12T14:35:23.987Z,78.30
2023-01-12T14:37:58.852Z,79.10
2023-01-12T14:40:33.828Z,79.40
2023-01-12T14:43:20.722Z,78.90
2023-01-12T14:46:17.594Z,78.30
2023-01-12T14:49:04.811Z,79.70
2023-01-12T14:51:36.420Z,79.70
2023-01-12T14:54:18.549Z,79.20
2023-01-12T14:56:56.531Z,79.90
2023-01-12T14:59:28.838Z,79.20
2023-01-12T15:02:25.880Z,79.20
2023-01-12T15:05:04.612Z,79.80
2023-01-12T15:07:53.261Z,79.00
2023-01-12T15:10:20.037Z,80.00
2023-01-12T15:12:54.791Z,77.90
2023-01-12T15:15:27.110Z,79.90
2023-01-12T15:18:14.070Z,78.50
2023-01-12T15:21:01.842Z,78.60
2023-01-12T15:23:52.644Z,78.80
2023-01-12T15:26:21.206Z,78.20
2023-01-12T15:28:48.846Z,77.90
2023-01-12T15:31:18.799Z,78.30
2023-01-12T15:33:45.615Z,79.20
2023-01-12T15:36:13.504Z,77.40
2023-01-12T15:38:40.303Z,78.10
2023-01-12T15:41:07.347Z,77.50
2023-01-12T15:43:34.058Z,77.40
2023-01-12T15:46:01.041Z,77.30
2023-01-12T15:48:27.786Z,77.30
2023-01-12T15:50:54.653Z,77.60
2023-01-12T15:53:23.940Z,77.50
2023-01-12T15:55:50.781Z,78.50
2023-01-12T15:58:19.418Z,77.70
2023-01-12T16:00:46.343Z,78.00
2023-01-12T16:03:32.111Z,77.50
2023-01-12T16:06:00.130Z,77.50
2023-01-12T16:08:26.945Z,77.60
2023-01-12T16:11:09.240Z,77.40
2023-01-12T16:13:36.020Z,77.20
2023-01-12T16:16:02.724Z,77.30
2023-01-12T16:18:29.957Z,77.10
2023-01-12T16:21:01.363Z,77.20
2023-01-12T16:23:28.539Z,79.40
2023-01-12T16:25:59.822Z,78.20
2023-01-12T16:28:27.703Z,78.90
2023-01-12T16:30:56.798Z,77.50
2023-01-12T16:33:23.616Z,77.20
2023-01-12T16:35:50.813Z,77.10
2023-01-12T16:38:18.470Z,78.60
2023-01-12T16:40:45.237Z,78.40
2023-01-12T16:43:12.507Z,77.50
2023-01-12T16:45:42.669Z,77.40
2023-01-12T16:48:09.531Z,79.00
2023-01-12T16:50:42.367Z,77.30
2023-01-12T16:53:10.630Z,78.90
2023-01-12T16:55:38.303Z,78.30
2023-01-12T16:58:06.220Z,78.40
2023-01-12T17:00:35.582Z,78.90
2023-01-12T17:03:02.950Z,77.60
2023-01-12T17:05:30.301Z,77.60
2023-01-12T17:07:57.213Z,78.10
2023-01-12T17:10:24.213Z,77.60
2023-01-12T17:12:56.967Z,77.60
2023-01-12T17:15:27.038Z,78.10
2023-01-12T17:17:54.889Z,78.20
2023-01-12T17:20:21.728Z,77.30
2023-01-12T17:22:48.587Z,77.30
2023-01-12T17:25:15.858Z,77.20
2023-01-12T17:27:43.299Z,77.30
2023-01-12T17:30:10.782Z,77.40
2023-01-12T17:32:37.730Z,77.60
2023-01-12T17:35:07.816Z,77.20
2023-01-12T17:37:34.594Z,77.50
2023-01-12T17:40:01.432Z,77.20
2023-01-12T17:42:46.861Z,77.20
2023-01-12T17:45:13.754Z,76.50
2023-01-12T17:47:40.544Z,77.40
2023-01-12T17:50:07.916Z,76.80
2023-01-12T17:52:34.794Z,77.30
2023-01-12T17:55:01.618Z,77.10
2023-01-12T17:57:28.428Z,76.90
2023-01-12T17:59:55.222Z,77.00
2023-01-12T18:02:22.122Z,76.80
2023-01-12T18:04:48.839Z,76.50
2023-01-12T18:07:15.571Z,76.50
2023-01-12T18:09:42.363Z,76.50
2023-01-12T18:12:10.428Z,77.40
2023-01-12T18:14:37.508Z,76.70
2023-01-12T18:17:04.351Z,76.70
2023-01-12T18:19:31.179Z,76.70
2023-01-12T18:21:58.010Z,76.80
2023-01-12T18:24:24.839Z,77.50
2023-01-12T18:26:51.641Z,76.60
2023-01-12T18:29:18.446Z,76.70
2023-01-12T18:31:47.186Z,76.40
2023-01-12T18:34:16.394Z,76.40
2023-01-12T18:36:43.597Z,77.30
2023-01-12T18:39:16.321Z,76.30
2023-01-12T18:42:01.793Z,77.80
2023-01-12T18:44:28.757Z,76.10
2023-01-12T18:47:16.603Z,76.30
2023-01-12T18:49:47.817Z,76.30
2023-01-12T18:52:34.903Z,76.60
2023-01-12T18:55:02.315Z,77.50
2023-01-12T18:57:30.833Z,76.30
2023-01-12T19:00:06.588Z,77.20
2023-01-12T19:02:33.392Z,77.40
2023-01-12T19:05:06.246Z,76.00
2023-01-12T19:07:43.629Z,75.80
2023-01-12T19:10:10.554Z,76.20
2023-01-12T19:12:37.276Z,76.30
2023-01-12T19:15:22.700Z,76.10
2023-01-12T19:17:49.388Z,75.90
2023-01-12T19:20:17.289Z,76.30
2023-01-12T19:23:02.482Z,76.40
2023-01-12T19:25:47.655Z,75.90
2023-01-12T19:28:32.810Z,76.70
2023-01-12T19:31:01.153Z,78.00
2023-01-12T19:33:28.473Z,77.30
2023-01-12T19:35:55.236Z,76.60
2023-01-12T19:38:22.197Z,76.30
2023-01-12T19:40:55.195Z,76.30
2023-01-12T19:43:26.076Z,76.70
2023-01-12T19:45:59.422Z,77.50
2023-01-12T19:48:26.931Z,77.80
2023-01-12T19:50:54.542Z,77.00
2023-01-12T19:53:27.997Z,76.70
2023-01-12T19:55:54.918Z,77.70
2023-01-12T19:58:22.014Z,75.80
2023-01-12T20:00:49.490Z,75.90
2023-01-12T20:03:18.943Z,76.60
2023-01-12T20:05:52.621Z,77.40
2023-01-12T20:08:21.941Z,76.50
2023-01-12T20:10:56.893Z,76.80
2023-01-12T20:13:24.490Z,77.80
2023-01-12T20:15:51.356Z,76.50
2023-01-12T20:18:18.811Z,76.10
2023-01-12T20:20:46.040Z,76.50
2023-01-12T20:23:14.804Z,76.60
2023-01-12T20:25:42.838Z,76.90
2023-01-12T20:28:12.233Z,77.00
2023-01-12T20:30:41.370Z,77.30
2023-01-12T20:33:08.906Z,77.50
2023-01-12T20:35:38.154Z,76.80
2023-01-12T20:38:06.696Z,76.40
2023-01-12T20:40:33.655Z,77.20
2023-01-12T20:43:00.754Z,76.40
2023-01-12T20:45:27.740Z,76.40
2023-01-12T20:47:56.164Z,76.60
2023-01-12T20:50:25.420Z,77.80
2023-01-12T20:52:54.112Z,76.70
2023-01-12T20:55:21.417Z,77.00
2023-01-12T20:57:48.973Z,76.70
2023-01-12T21:00:16.961Z,76.90
2023-01-12T21:02:43.795Z,77.30
2023-01-12T21:05:10.569Z,77.00
2023-01-12T21:07:37.372Z,76.70
2023-01-12T21:10:07.135Z,77.10
2023-01-12T21:12:34.107Z,77.30
2023-01-12T21:15:00.869Z,76.50
2023-01-12T21:17:27.644Z,77.40
2023-01-12T21:19:54.395Z,76.70
2023-01-12T21:22:21.172Z,76.70
2023-01-12T21:24:48.094Z,76.80
2023-01-12T21:27:14.841Z,76.90
2023-01-12T21:29:41.561Z,76.60
2023-01-12T21:32:08.270Z,76.50
2023-01-12T21:34:35.024Z,76.40
2023-01-12T21:37:01.714Z,76.10
2023-01-12T21:39:28.453Z,76.00
2023-01-12T21:42:13.661Z,76.10
2023-01-12T21:44:40.460Z,75.60
2023-01-12T21:47:07.209Z,76.10
2023-01-12T21:49:33.945Z,76.10
2023-01-12T21:52:00.650Z,76.10
2023-01-12T21:54:27.509Z,76.00
2023-01-12T21:56:54.263Z,76.10
2023-01-12T21:59:20.978Z,76.20
2023-01-12T22:01:48.559Z,76.30
2023-01-12T22:04:15.440Z,76.40
2023-01-12T22:06:42.238Z,76.20
2023-01-12T22:09:09.154Z,76.10
2023-01-12T22:11:35.903Z,76.30
2023-01-12T22:14:02.644Z,76.30
2023-01-12T22:16:29.615Z,76.10
2023-01-12T22:18:56.355Z,75.70
2023-01-12T22:21:23.200Z,76.00
2023-01-12T22:23:50.208Z,75.80
2023-01-12T22:26:18.340Z,75.90
2023-01-12T22:28:49.361Z,76.30
2023-01-12T22:31:21.853Z,76.70
2023-01-12T22:34:03.772Z,77.80
2023-01-12T22:36:34.711Z,76.40
2023-01-12T22:39:02.033Z,76.00
2023-01-12T22:41:28.790Z,75.20
2023-01-12T22:43:55.748Z,75.10
2023-01-12T22:46:24.856Z,75.30
2023-01-12T22:48:53.880Z,75.90
2023-01-12T22:51:22.184Z,75.60
2023-01-12T22:53:49.156Z,75.60
2023-01-12T22:56:16.308Z,74.70
2023-01-12T22:58:51.034Z,74.40
2023-01-12T23:01:19.073Z,76.20
2023-01-12T23:03:46.279Z,74.90
2023-01-12T23:06:15.465Z,74.60
2023-01-12T23:08:43.584Z,75.10
2023-01-12T23:11:18.071Z,75.70
2023-01-12T23:13:46.104Z,76.10
2023-01-12T23:16:15.058Z,74.70
2023-01-12T23:18:43.814Z,75.40
2023-01-12T23:21:16.460Z,75.10
2023-01-12T23:23:55.609Z,75.60
2023-01-12T23:26:30.783Z,75.30
2023-01-12T23:29:00.219Z,75.10
2023-01-12T23:31:29.496Z,74.90
2023-01-12T23:33:57.076Z,74.40
2023-01-12T23:36:26.035Z,72.70
2023-01-12T23:38:54.445Z,74.00
2023-01-12T23:41:24.469Z,73.70
2023-01-12T23:43:52.549Z,73.20
2023-01-12T23:46:23.300Z,72.60
2023-01-12T23:48:51.912Z,72.00
2023-01-12T23:51:19.101Z,73.10
2023-01-12T23:53:45.807Z,72.30
2023-01-12T23:56:15.248Z,71.70
2023-01-12T23:58:42.906Z,72.70
